createdAt,value
2023-04-12T00:01:33.672Z,65.05
2023-04-12T00:04:05.074Z,64.11
2023-04-12T00:06:32.877Z,64.28
2023-04-12T00:09:02.195Z,63.38
2023-04-12T00:11:31.870Z,62.31
2023-04-12T00:13:58.926Z,62.09
2023-04-12T00:16:26.721Z,63.26
2023-04-12T00:18:57.799Z,61.55
2023-04-12T00:21:29.083Z,60.84
2023-04-12T00:23:57.452Z,60.09
2023-04-12T00:26:27.659Z,61.18
2023-04-12T00:28:55.063Z,60.73
2023-04-12T00:31:22.416Z,62.31
2023-04-12T00:33:49.774Z,62.02
2023-04-12T00:36:17.952Z,60.53
2023-04-12T00:38:51.452Z,60.13
2023-04-12T00:41:18.911Z,59.81
2023-04-12T00:43:46.052Z,59.43
2023-04-12T00:46:13.504Z,61.93
2023-04-12T00:48:41.099Z,63.32
2023-04-12T00:51:08.453Z,63.70
2023-04-12T00:53:36.433Z,65.36
2023-04-12T00:56:04.564Z,62.50
2023-04-12T00:58:32.306Z,65.02
2023-04-12T01:00:59.602Z,62.77
2023-04-12T01:03:31.230Z,62.53
2023-04-12T01:06:33.272Z,62.93
2023-04-12T01:09:11.639Z,61.96
2023-04-12T01:11:44.680Z,61.86
2023-04-12T01:14:14.631Z,61.73
2023-04-12T01:16:51.709Z,60.75
2023-04-12T01:19:29.239Z,60.00
2023-04-12T01:22:30.511Z,60.10
2023-04-12T01:25:05.144Z,60.85
2023-04-12T01:27:42.607Z,59.63
2023-04-12T01:30:14.252Z,58.93
2023-04-12T01:32:44.487Z,58.21
2023-04-12T01:35:13.270Z,57.57
2023-04-12T01:37:41.732Z,57.76
2023-04-12T01:40:15.235Z,57.70
2023-04-12T01:42:42.409Z,58.00
2023-04-12T01:45:09.941Z,65.95
2023-04-12T01:47:39.465Z,73.01
2023-04-12T01:50:28.494Z,72.76
2023-04-12T01:53:27.601Z,71.79
2023-04-12T01:56:00.033Z,68.43
2023-04-12T01:58:29.781Z,71.62
2023-04-12T02:00:59.273Z,70.35
2023-04-12T02:03:27.372Z,69.11
2023-04-12T02:05:54.635Z,67.64
2023-04-12T02:08:22.346Z,66.36
2023-04-12T02:10:49.512Z,64.56
2023-04-12T02:13:18.473Z,64.00
2023-04-12T02:15:46.277Z,63.13
2023-04-12T02:18:14.307Z,63.60
2023-04-12T02:20:41.507Z,64.32
2023-04-12T02:23:09.892Z,69.01
2023-04-12T02:25:36.996Z,67.11
2023-04-12T02:28:04.131Z,69.49
2023-04-12T02:30:31.360Z,70.11
2023-04-12T02:32:59.007Z,70.00
2023-04-12T02:35:26.705Z,69.64
2023-04-12T02:37:55.141Z,70.62
2023-04-12T02:40:22.473Z,72.43
2023-04-12T02:42:49.636Z,73.86
2023-04-12T02:45:16.932Z,72.14
2023-04-12T02:47:44.078Z,71.48
2023-04-12T02:50:12.234Z,73.20
2023-04-12T02:52:39.399Z,72.06
2023-04-12T02:55:07.079Z,72.06
2023-04-12T02:57:34.101Z,69.57
2023-04-12T03:00:01.930Z,71.18
2023-04-12T03:02:29.394Z,71.52
2023-04-12T03:04:57.335Z,69.22
2023-04-12T03:07:24.573Z,67.24
2023-04-12T03:09:52.120Z,65.98
2023-04-12T03:12:19.440Z,65.27
2023-04-12T03:14:46.701Z,65.23
2023-04-12T03:17:13.849Z,69.13
2023-04-12T03:19:41.086Z,67.92
2023-04-12T03:22:08.203Z,64.95
2023-04-12T03:24:35.430Z,63.90
2023-04-12T03:27:03.953Z,63.33
2023-04-12T03:29:31.653Z,65.57
2023-04-12T03:31:59.909Z,63.49
2023-04-12T03:34:28.147Z,64.54
2023-04-12T03:36:56.075Z,64.36
2023-04-12T03:39:23.289Z,63.35
2023-04-12T03:41:51.082Z,63.08
2023-04-12T03:44:18.317Z,63.15
2023-04-12T03:46:45.957Z,62.53
2023-04-12T03:49:13.286Z,62.57
2023-04-12T03:51:44.035Z,63.79
2023-04-12T03:54:14.748Z,65.42
2023-04-12T03:56:42.795Z,66.19
2023-04-12T03:59:10.879Z,65.14
2023-04-12T04:01:39.101Z,64.25
2023-04-12T04:04:07.221Z,63.83
2023-04-12T04:06:34.941Z,63.79
2023-04-12T04:09:02.183Z,63.35
2023-04-12T04:11:29.397Z,62.59
2023-04-12T04:13:56.722Z,61.82
2023-04-12T04:16:24.062Z,62.53
2023-04-12T04:18:51.378Z,63.47
2023-04-12T04:21:19.869Z,62.78
2023-04-12T04:23:48.350Z,63.56
2023-04-12T04:26:17.188Z,64.44
2023-04-12T04:28:48.054Z,69.00
2023-04-12T04:31:17.960Z,68.73
2023-04-12T04:33:45.132Z,65.73
2023-04-12T04:36:13.860Z,62.91
2023-04-12T04:38:42.326Z,59.60
2023-04-12T04:41:09.564Z,57.78
2023-04-12T04:43:40.213Z,57.99
2023-04-12T04:46:07.517Z,55.49
2023-04-12T04:48:34.858Z,53.84
2023-04-12T04:51:02.620Z,52.97
2023-04-12T04:53:29.703Z,51.17
2023-04-12T04:56:01.355Z,50.13
2023-04-12T04:58:28.585Z,47.44
2023-04-12T05:00:59.949Z,45.32
2023-04-12T05:03:31.049Z,44.76
2023-04-12T05:05:58.187Z,43.10
2023-04-12T05:08:25.429Z,42.61
2023-04-12T05:10:53.604Z,41.66
2023-04-12T05:13:22.555Z,42.98
2023-04-12T05:15:50.317Z,44.00
2023-04-12T05:18:18.352Z,45.10
2023-04-12T05:20:46.131Z,43.55
2023-04-12T05:23:13.157Z,41.53
2023-04-12T05:25:48.515Z,40.31
2023-04-12T05:28:20.267Z,39.77
2023-04-12T05:30:47.333Z,38.98
2023-04-12T05:33:14.474Z,37.58
2023-04-12T05:35:41.481Z,37.97
2023-04-12T05:38:08.577Z,38.04
2023-04-12T05:40:36.724Z,37.07
2023-04-12T05:43:03.977Z,36.59
2023-04-12T05:45:33.173Z,34.89
2023-04-12T05:48:00.363Z,34.02
2023-04-12T05:50:27.398Z,33.95
2023-04-12T05:52:55.817Z,32.94
2023-04-12T05:55:22.994Z,32.98
2023-04-12T05:57:50.132Z,32.04
2023-04-12T06:00:17.783Z,31.55
2023-04-12T06:02:46.328Z,32.01
2023-04-12T06:05:13.946Z,31.25
2023-04-12T06:07:44.875Z,31.29
2023-04-12T06:10:12.082Z,30.96
2023-04-12T06:12:39.430Z,31.61
2023-04-12T06:15:07.947Z,30.61
2023-04-12T06:17:45.238Z,30.20
2023-04-12T06:20:14.673Z,30.19
2023-04-12T06:22:45.377Z,30.33
2023-04-12T06:25:12.521Z,31.46
2023-04-12T06:27:39.567Z,30.65
2023-04-12T06:30:07.259Z,31.50
2023-04-12T06:32:34.475Z,31.45
2023-04-12T06:35:01.572Z,32.17
2023-04-12T06:37:28.681Z,34.34
2023-04-12T06:39:55.858Z,34.54
2023-04-12T06:42:23.007Z,34.79
2023-04-12T06:44:50.146Z,36.05
2023-04-12T06:47:20.366Z,34.84
2023-04-12T06:49:47.672Z,39.12
2023-04-12T06:52:14.946Z,37.59
2023-04-12T06:54:42.748Z,35.68
2023-04-12T06:57:12.603Z,36.08
2023-04-12T06:59:42.084Z,38.22
2023-04-12T07:02:09.292Z,40.62
2023-04-12T07:04:36.727Z,39.78
2023-04-12T07:07:03.948Z,40.16
2023-04-12T07:09:34.126Z,38.61
2023-04-12T07:12:02.648Z,38.60
2023-04-12T07:14:29.879Z,36.89
2023-04-12T07:16:59.402Z,36.53
2023-04-12T07:19:26.599Z,34.70
2023-04-12T07:21:53.786Z,35.23
2023-04-12T07:24:22.318Z,36.02
2023-04-12T07:26:49.909Z,34.36
2023-04-12T07:29:17.808Z,35.20
2023-04-12T07:31:44.958Z,34.68
2023-04-12T07:34:13.573Z,35.14
2023-04-12T07:36:40.937Z,34.28
2023-04-12T07:39:12.248Z,34.77
2023-04-12T07:41:39.782Z,35.65
2023-04-12T07:44:07.054Z,34.88
2023-04-12T07:46:36.611Z,35.46
2023-04-12T07:49:04.503Z,39.73
2023-04-12T07:51:31.698Z,38.96
2023-04-12T07:53:59.059Z,38.02
2023-04-12T07:56:26.551Z,36.90
2023-04-12T07:58:54.150Z,36.80
2023-04-12T08:01:21.613Z,33.92
2023-04-12T08:03:49.104Z,33.63
2023-04-12T08:06:17.837Z,34.57
2023-04-12T08:08:45.127Z,34.21
2023-04-12T08:11:14.232Z,34.08
2023-04-12T08:13:41.335Z,33.70
2023-04-12T08:16:09.454Z,34.62
2023-04-12T08:18:38.662Z,33.99
2023-04-12T08:21:06.019Z,36.92
2023-04-12T08:23:33.481Z,33.62
2023-04-12T08:26:05.133Z,34.31
2023-04-12T08:28:32.843Z,32.57
2023-04-12T08:31:02.025Z,32.59
2023-04-12T08:33:29.362Z,33.13
2023-04-12T08:35:57.074Z,33.11
2023-04-12T08:38:33.906Z,31.26
2023-04-12T08:41:14.804Z,29.69
2023-04-12T08:43:45.747Z,29.73
2023-04-12T08:46:17.969Z,27.10
2023-04-12T08:48:50.932Z,29.97
2023-04-12T08:51:19.798Z,30.16
2023-04-12T08:53:47.212Z,28.81
2023-04-12T08:56:17.884Z,28.85
2023-04-12T08:58:51.471Z,30.48
2023-04-12T09:01:20.948Z,28.74
2023-04-12T09:03:48.171Z,29.05
2023-04-12T09:06:15.988Z,28.10
2023-04-12T09:08:55.323Z,31.27
2023-04-12T09:11:27.304Z,28.37
2023-04-12T09:13:56.530Z,29.36
2023-04-12T09:16:41.526Z,30.04
2023-04-12T09:19:09.748Z,27.01
2023-04-12T09:21:37.483Z,25.08
2023-04-12T09:24:14.796Z,26.91
2023-04-12T09:26:42.548Z,24.59
2023-04-12T09:29:25.541Z,24.47
2023-04-12T09:32:08.095Z,25.17
2023-04-12T09:34:38.702Z,25.12
2023-04-12T09:37:24.623Z,27.13
2023-04-12T09:40:11.113Z,26.03
2023-04-12T09:42:53.711Z,26.83
2023-04-12T09:45:26.164Z,24.75
2023-04-12T09:47:54.841Z,25.60
2023-04-12T09:50:30.029Z,25.71
2023-04-12T09:52:59.500Z,24.35
2023-04-12T09:55:30.058Z,23.50
2023-04-12T09:57:58.774Z,22.64
2023-04-12T10:00:27.659Z,23.85
2023-04-12T10:02:57.087Z,22.45
2023-04-12T10:05:26.921Z,22.75
2023-04-12T10:07:58.684Z,22.86
2023-04-12T10:10:26.282Z,23.59
2023-04-12T10:12:53.580Z,24.35
2023-04-12T10:15:23.926Z,24.73
2023-04-12T10:17:57.887Z,23.33
2023-04-12T10:20:28.517Z,23.94
2023-04-12T10:22:58.151Z,24.22
2023-04-12T10:25:31.840Z,22.91
2023-04-12T10:28:14.730Z,24.49
2023-04-12T10:30:42.229Z,23.80
2023-04-12T10:33:14.351Z,25.17
2023-04-12T10:36:01.029Z,25.68
2023-04-12T10:38:33.645Z,27.15
2023-04-12T10:41:21.171Z,25.89
2023-04-12T10:43:52.606Z,25.54
2023-04-12T10:46:41.629Z,25.36
2023-04-12T10:49:11.838Z,25.77
2023-04-12T10:51:39.339Z,23.48
2023-04-12T10:54:11.944Z,25.16
2023-04-12T10:56:41.081Z,23.42
2023-04-12T10:59:09.843Z,25.17
2023-04-12T11:01:39.471Z,26.18
2023-04-12T11:04:24.122Z,25.89
2023-04-12T11:06:59.164Z,24.32
2023-04-12T11:09:39.702Z,24.93
2023-04-12T11:12:09.580Z,24.38
2023-04-12T11:14:48.402Z,25.11
2023-04-12T11:17:16.144Z,24.90
2023-04-12T11:19:46.585Z,25.21
2023-04-12T11:22:16.634Z,24.33
2023-04-12T11:24:45.624Z,21.95
2023-04-12T11:27:13.252Z,21.86
2023-04-12T11:29:40.591Z,21.14
2023-04-12T11:32:15.077Z,19.21
2023-04-12T11:34:48.267Z,19.67
2023-04-12T11:37:16.054Z,24.91
2023-04-12T11:39:44.853Z,22.87
2023-04-12T11:42:21.210Z,21.59
2023-04-12T11:44:57.302Z,20.67
2023-04-12T11:47:28.063Z,20.61
2023-04-12T11:49:59.505Z,20.79
2023-04-12T11:52:32.190Z,18.74
2023-04-12T11:55:07.827Z,20.65
2023-04-12T11:57:37.681Z,18.95
2023-04-12T12:00:08.294Z,21.67
2023-04-12T12:02:43.546Z,21.98
2023-04-12T12:05:13.853Z,20.94
2023-04-12T12:07:43.397Z,19.47
2023-04-12T12:10:10.609Z,18.66
2023-04-12T12:12:37.862Z,18.74
2023-04-12T12:15:05.408Z,21.54
2023-04-12T12:17:38.207Z,21.91
2023-04-12T12:20:08.105Z,21.43
2023-04-12T12:22:35.230Z,21.95
2023-04-12T12:25:04.404Z,20.79
2023-04-12T12:27:35.573Z,19.46
2023-04-12T12:30:04.748Z,18.91
2023-04-12T12:32:37.504Z,19.44
2023-04-12T12:35:10.327Z,20.38
2023-04-12T12:37:37.559Z,20.59
2023-04-12T12:40:18.053Z,21.19
2023-04-12T12:42:56.642Z,18.86
2023-04-12T12:45:26.082Z,20.16
2023-04-12T12:48:01.092Z,19.26
2023-04-12T12:50:33.150Z,20.49
2023-04-12T12:53:01.258Z,23.52
2023-04-12T12:55:33.547Z,21.60
2023-04-12T13:00:31.952Z,26.36
2023-04-12T13:03:02.181Z,26.20
2023-04-12T13:05:30.050Z,27.28
2023-04-12T13:07:57.281Z,28.43
2023-04-12T13:10:24.650Z,27.49
2023-04-12T13:12:55.150Z,24.33
2023-04-12T13:15:24.167Z,25.13
2023-04-12T13:17:55.649Z,25.16
2023-04-12T13:20:41.028Z,25.59
2023-04-12T13:23:11.031Z,26.79
2023-04-12T13:25:42.061Z,28.23
2023-04-12T13:28:13.082Z,26.66
2023-04-12T13:30:40.252Z,24.88
2023-04-12T13:33:09.967Z,26.12
2023-04-12T13:35:37.671Z,25.61
2023-04-12T13:38:04.792Z,24.15
2023-04-12T13:40:32.147Z,24.69
2023-04-12T13:43:02.846Z,23.18
2023-04-12T13:45:31.164Z,25.15
2023-04-12T13:48:00.130Z,25.62
2023-04-12T13:50:27.609Z,24.97
2023-04-12T13:52:56.712Z,24.06
2023-04-12T13:55:23.861Z,23.82
2023-04-12T13:57:51.042Z,24.39
2023-04-12T14:00:27.894Z,22.48
2023-04-12T14:02:55.207Z,24.20
2023-04-12T14:05:23.091Z,23.89
2023-04-12T14:07:51.121Z,23.48
2023-04-12T14:10:18.517Z,22.80
2023-04-12T14:12:45.670Z,21.97
2023-04-12T14:15:12.841Z,21.98
2023-04-12T14:17:42.050Z,25.71
2023-04-12T14:20:16.602Z,27.80
2023-04-12T14:22:45.049Z,26.54
2023-04-12T14:25:12.163Z,25.32
2023-04-12T14:27:39.239Z,23.78
2023-04-12T14:30:07.711Z,25.66
2023-04-12T14:32:34.804Z,24.01
2023-04-12T14:35:04.925Z,26.92
2023-04-12T14:37:33.315Z,26.94
2023-04-12T14:40:00.384Z,27.91
2023-04-12T14:42:27.470Z,29.74
2023-04-12T14:44:54.456Z,29.21
2023-04-12T14:47:21.842Z,28.45
2023-04-12T14:49:48.905Z,28.47
2023-04-12T14:52:16.809Z,28.35
2023-04-12T14:54:43.839Z,26.99
2023-04-12T14:57:11.477Z,28.01
2023-04-12T14:59:40.523Z,28.76
2023-04-12T15:02:07.747Z,31.42
2023-04-12T15:04:37.046Z,31.91
2023-04-12T15:07:04.139Z,29.59
2023-04-12T15:09:31.398Z,28.63
2023-04-12T15:12:03.429Z,27.93
2023-04-12T15:14:30.493Z,28.21
2023-04-12T15:16:59.542Z,31.05
2023-04-12T15:19:26.548Z,30.47
2023-04-12T15:21:59.199Z,29.74
2023-04-12T15:24:28.345Z,29.95
2023-04-12T15:26:55.439Z,30.66
2023-04-12T15:29:22.976Z,28.81
2023-04-12T15:31:50.473Z,30.15
2023-04-12T15:34:17.945Z,29.03
2023-04-12T15:36:46.355Z,28.50
2023-04-12T15:39:15.230Z,28.03
2023-04-12T15:41:43.416Z,28.31
2023-04-12T15:44:14.382Z,29.29
2023-04-12T15:46:42.047Z,28.28
2023-04-12T15:49:09.964Z,27.66
2023-04-12T15:51:36.943Z,27.25
2023-04-12T15:54:05.627Z,27.41
2023-04-12T15:56:32.798Z,27.38
2023-04-12T15:59:01.452Z,27.65
2023-04-12T16:01:28.825Z,28.96
2023-04-12T16:03:56.078Z,28.64
2023-04-12T16:06:25.525Z,27.71
2023-04-12T16:08:54.872Z,28.13
2023-04-12T16:11:24.113Z,28.05
2023-04-12T16:13:51.867Z,28.18
2023-04-12T16:16:21.556Z,28.15
2023-04-12T16:18:49.159Z,28.27
2023-04-12T16:21:20.376Z,27.73
2023-04-12T16:23:49.141Z,28.25
2023-04-12T16:26:24.971Z,28.04
2023-04-12T16:28:53.530Z,28.49
2023-04-12T16:31:21.453Z,27.51
2023-04-12T16:33:49.909Z,27.92
2023-04-12T16:36:17.435Z,27.73
2023-04-12T16:38:45.858Z,28.34
2023-04-12T16:41:13.299Z,28.45
2023-04-12T16:43:41.495Z,28.94
2023-04-12T16:46:10.933Z,28.71
2023-04-12T16:48:43.841Z,29.06
2023-04-12T16:51:10.853Z,29.07
2023-04-12T16:53:37.994Z,29.79
2023-04-12T16:56:07.473Z,29.31
2023-04-12T16:58:34.536Z,28.98
2023-04-12T17:01:02.181Z,30.06
2023-04-12T17:03:29.330Z,30.50
2023-04-12T17:05:56.370Z,30.49
2023-04-12T17:08:23.501Z,31.35
2023-04-12T17:10:53.142Z,30.68
2023-04-12T17:13:20.556Z,32.30
2023-04-12T17:15:50.552Z,32.69
2023-04-12T17:18:17.672Z,32.60
2023-04-12T17:20:45.096Z,34.10
2023-04-12T17:23:12.654Z,34.47
2023-04-12T17:25:40.172Z,33.45
2023-04-12T17:28:08.688Z,33.58
2023-04-12T17:30:35.764Z,34.28
2023-04-12T17:33:03.269Z,33.71
2023-04-12T17:35:30.362Z,34.53
2023-04-12T17:37:57.514Z,34.81
2023-04-12T17:40:24.545Z,35.80
2023-04-12T17:42:53.637Z,36.00
2023-04-12T17:45:22.094Z,35.59
2023-04-12T17:47:49.441Z,35.83
2023-04-12T17:50:16.744Z,36.01
2023-04-12T17:52:44.997Z,36.57
2023-04-12T17:55:13.107Z,37.50
2023-04-12T17:57:40.403Z,38.21
2023-04-12T18:00:12.112Z,38.68
2023-04-12T18:02:39.773Z,39.62
2023-04-12T18:05:07.853Z,38.53
2023-04-12T18:07:35.022Z,40.00
2023-04-12T18:10:03.569Z,39.07
2023-04-12T18:12:30.634Z,40.04
2023-04-12T18:14:57.688Z,41.03
2023-04-12T18:17:26.539Z,42.27
2023-04-12T18:19:54.675Z,42.42
2023-04-12T18:22:21.857Z,41.50
2023-04-12T18:24:48.911Z,41.29
2023-04-12T18:27:15.928Z,41.29
2023-04-12T18:29:43.013Z,41.92
2023-04-12T18:32:09.984Z,41.84
2023-04-12T18:34:36.934Z,42.45
2023-04-12T18:37:06.183Z,42.61
2023-04-12T18:39:35.866Z,42.83
2023-04-12T18:42:03.043Z,42.73
2023-04-12T18:44:30.536Z,43.41
2023-04-12T18:46:57.492Z,43.98
2023-04-12T18:49:24.606Z,44.05
2023-04-12T18:51:53.504Z,43.95
2023-04-12T18:54:21.407Z,45.57
2023-04-12T18:56:49.853Z,43.70
2023-04-12T18:59:18.001Z,43.59
2023-04-12T19:01:45.935Z,43.31
2023-04-12T19:04:13.268Z,42.57
2023-04-12T19:06:42.466Z,42.59
2023-04-12T19:09:09.541Z,42.33
2023-04-12T19:11:37.228Z,42.83
2023-04-12T19:14:04.720Z,42.16
2023-04-12T19:16:32.358Z,42.34
2023-04-12T19:19:00.499Z,43.24
2023-04-12T19:21:31.801Z,43.45
2023-04-12T19:23:59.276Z,43.84
2023-04-12T19:26:28.778Z,43.37
2023-04-12T19:28:58.469Z,44.21
2023-04-12T19:31:25.994Z,43.71
2023-04-12T19:33:54.929Z,43.25
2023-04-12T19:36:24.883Z,42.62
2023-04-12T19:38:52.379Z,44.12
2023-04-12T19:41:20.753Z,43.59
2023-04-12T19:43:48.026Z,45.21
2023-04-12T19:46:15.286Z,44.65
2023-04-12T19:48:42.942Z,44.76
2023-04-12T19:51:10.039Z,45.27
2023-04-12T19:53:37.209Z,45.47
2023-04-12T19:56:04.526Z,45.75
2023-04-12T19:58:32.356Z,47.14
2023-04-12T20:01:02.352Z,46.26
2023-04-12T20:03:30.397Z,45.97
2023-04-12T20:05:59.305Z,45.67
2023-04-12T20:08:28.724Z,45.30
2023-04-12T20:10:56.534Z,46.84
2023-04-12T20:13:23.571Z,46.51
2023-04-12T20:15:51.381Z,45.48
2023-04-12T20:18:18.445Z,46.65
2023-04-12T20:20:45.904Z,47.24
2023-04-12T20:23:13.969Z,47.38
2023-04-12T20:25:42.059Z,46.71
2023-04-12T20:28:09.694Z,46.64
2023-04-12T20:30:37.198Z,46.32
2023-04-12T20:33:04.813Z,46.01
2023-04-12T20:35:32.333Z,46.55
2023-04-12T20:38:00.285Z,46.67
2023-04-12T20:40:30.057Z,49.09
2023-04-12T20:42:57.158Z,49.51
2023-04-12T20:45:24.424Z,50.69
2023-04-12T20:47:51.595Z,51.17
2023-04-12T20:50:22.660Z,49.53
2023-04-12T20:52:52.309Z,48.29
2023-04-12T20:55:19.811Z,48.58
2023-04-12T20:57:46.906Z,49.86
2023-04-12T21:00:21.168Z,48.08
2023-04-12T21:02:49.071Z,48.09
2023-04-12T21:05:17.262Z,47.30
2023-04-12T21:07:47.029Z,46.62
2023-04-12T21:10:15.263Z,47.48
2023-04-12T21:12:43.029Z,47.38
2023-04-12T21:15:12.226Z,46.51
2023-04-12T21:17:39.435Z,46.62
2023-04-12T21:20:13.672Z,47.85
2023-04-12T21:22:44.424Z,50.52
2023-04-12T21:25:14.038Z,49.27
2023-04-12T21:27:45.930Z,47.32
2023-04-12T21:30:13.854Z,46.85
2023-04-12T21:32:41.464Z,45.65
2023-04-12T21:35:10.087Z,48.99
2023-04-12T21:37:39.420Z,48.85
2023-04-12T21:40:09.626Z,48.31
2023-04-12T21:42:37.720Z,46.82
2023-04-12T21:45:05.740Z,45.29
2023-04-12T21:47:33.155Z,45.20
2023-04-12T21:50:00.742Z,45.30
2023-04-12T21:52:28.023Z,45.58
2023-04-12T21:54:55.933Z,47.14
2023-04-12T21:57:23.014Z,46.80
2023-04-12T21:59:49.954Z,47.95
2023-04-12T22:02:16.980Z,48.03
2023-04-12T22:04:44.370Z,47.83
2023-04-12T22:07:13.542Z,45.35
2023-04-12T22:09:41.640Z,48.92
2023-04-12T22:12:10.167Z,46.03
2023-04-12T22:14:37.361Z,45.47
2023-04-12T22:17:06.258Z,45.72
2023-04-12T22:19:33.345Z,45.33
2023-04-12T22:22:01.763Z,48.48
2023-04-12T22:24:29.656Z,46.21
2023-04-12T22:26:57.694Z,47.57
2023-04-12T22:29:25.617Z,47.06
2023-04-12T22:31:52.996Z,47.33
2023-04-12T22:34:20.089Z,48.53
2023-04-12T22:36:51.837Z,50.14
2023-04-12T22:39:20.528Z,49.35
2023-04-12T22:41:53.347Z,50.55
2023-04-12T22:44:23.541Z,49.85
2023-04-12T22:46:54.603Z,51.18
2023-04-12T22:49:28.452Z,51.74
2023-04-12T22:51:56.126Z,50.63
2023-04-12T22:54:26.720Z,50.92
2023-04-12T22:56:53.772Z,51.34
2023-04-12T22:59:23.266Z,51.80
2023-04-12T23:01:50.719Z,51.25
2023-04-12T23:04:17.820Z,51.11
2023-04-12T23:06:45.589Z,52.12
2023-04-12T23:09:13.115Z,52.35
2023-04-12T23:11:41.478Z,49.31
2023-04-12T23:14:09.941Z,48.56
2023-04-12T23:16:42.621Z,48.59
2023-04-12T23:19:09.799Z,47.56
2023-04-12T23:21:37.380Z,47.37
2023-04-12T23:24:05.559Z,47.24
2023-04-12T23:26:34.588Z,45.84
2023-04-12T23:29:03.919Z,46.09
2023-04-12T23:31:33.659Z,46.01
2023-04-12T23:34:03.937Z,46.53
2023-04-12T23:36:31.000Z,46.49
2023-04-12T23:39:00.565Z,46.81
2023-04-12T23:41:32.242Z,46.81
2023-04-12T23:44:00.547Z,45.44
2023-04-12T23:46:28.163Z,45.99
2023-04-12T23:48:55.402Z,45.47
2023-04-12T23:51:22.961Z,46.06
2023-04-12T23:53:50.522Z,45.16
2023-04-12T23:56:17.662Z,44.26
2023-04-12T23:58:44.790Z,44.22
